DAW weather

Skyhaven Airport
Rochester, New Hampshire, United States

Public forecast

Using degrees Fahrenheit for public forecast. Weather courtesy of forecast.io.

Current aviation weather report (METAR) for Skyhaven Airport

Report is more than 2 hours old.

Retrieved 2019/10/17 05:51 UTC (4 hours ago):

KDAW 170551Z AUTO 07016G30KT 4SM +RA BR OVC008 12/11 A2928 RMK AO2 PK WND 05035/0500 CIG 006V012 PRESFR SLP912 P0023 60045 T01220106 10122 20117 58096

Closest aviation forecast (TAF) to Skyhaven Airport

Closest forecast is Portsmouth International at Pease Airport, 13.2 nm (24.5 km) SSE. Retrieved 2019/10/17 06:22 UTC (3 hours ago):

TAF KPSM 170520Z 1706/1806 08022G45KT 2SM -RA BR OVC006 WS020/10054KT FM171200 20018G35KT 6SM SHRA BR OVC015 FM171900 22012G20KT P6SM OVC015 FM172200 25010G17KT P6SM BKN045